createdAt,value
2019-06-10T00:04:12.544Z,17.40
2019-06-10T00:09:16.569Z,17.40
2019-06-10T00:14:21.260Z,17.40
2019-06-10T00:19:26.662Z,17.50
2019-06-10T00:24:31.663Z,17.40
2019-06-10T00:29:35.853Z,17.40
2019-06-10T00:34:41.867Z,17.40
2019-06-10T00:39:46.678Z,17.40
2019-06-10T00:44:51.494Z,17.30
2019-06-10T00:49:58.264Z,17.30
2019-06-10T00:55:04.479Z,17.20
2019-06-10T01:00:18.276Z,17.20
2019-06-10T01:05:15.249Z,17.10
2019-06-10T01:10:24.207Z,17.10
2019-06-10T01:15:32.263Z,17.10
2019-06-10T01:20:36.672Z,17.10
2019-06-10T01:25:42.188Z,17.00
2019-06-10T01:30:46.666Z,17.00
2019-06-10T01:35:52.868Z,17.00
2019-06-10T01:40:56.961Z,17.00
2019-06-10T01:46:01.786Z,16.90
2019-06-10T01:51:07.126Z,16.90
2019-06-10T01:56:12.768Z,16.80
2019-06-10T02:01:23.594Z,16.80
2019-06-10T02:06:27.707Z,16.70
2019-06-10T02:11:32.164Z,16.70
2019-06-10T02:16:35.260Z,16.60
2019-06-10T02:21:41.580Z,16.60
2019-06-10T02:26:45.351Z,16.50
2019-06-10T02:31:52.166Z,16.50
2019-06-10T02:36:56.654Z,16.40
2019-06-10T02:42:06.079Z,16.30
2019-06-10T02:47:13.528Z,16.20
2019-06-10T02:52:22.836Z,16.10
2019-06-10T02:57:34.834Z,16.00
2019-06-10T03:02:35.464Z,16.00
2019-06-10T03:07:40.005Z,15.90
2019-06-10T03:12:44.429Z,15.90
2019-06-10T03:17:48.764Z,15.90
2019-06-10T03:22:53.098Z,15.90
2019-06-10T03:27:58.612Z,16.00
2019-06-10T03:33:04.905Z,16.00
2019-06-10T03:38:08.611Z,16.00
2019-06-10T03:43:12.976Z,16.00
2019-06-10T03:48:19.365Z,16.00
2019-06-10T03:53:24.331Z,16.10
2019-06-10T03:58:29.256Z,16.00
2019-06-10T04:03:34.110Z,16.00
2019-06-10T04:08:38.399Z,16.00
2019-06-10T04:13:43.471Z,16.00
2019-06-10T04:18:47.925Z,15.90
2019-06-10T04:23:52.828Z,15.90
2019-06-10T04:28:57.305Z,15.90
2019-06-10T04:34:03.188Z,15.90
2019-06-10T04:39:07.759Z,15.80
2019-06-10T04:44:13.076Z,15.70
2019-06-10T04:49:18.880Z,15.70
2019-06-10T04:54:23.848Z,15.70
2019-06-10T04:59:31.084Z,15.90
2019-06-10T05:04:36.276Z,16.00
2019-06-10T05:09:42.250Z,16.20
2019-06-10T05:14:46.186Z,16.50
2019-06-10T05:19:53.088Z,16.70
2019-06-10T05:24:57.074Z,16.80
2019-06-10T05:30:06.427Z,16.80
2019-06-10T05:35:12.416Z,16.80
2019-06-10T05:40:23.404Z,16.80
2019-06-10T05:45:30.497Z,16.80
2019-06-10T05:50:38.057Z,16.80
2019-06-10T05:55:42.799Z,16.80
2019-06-10T06:00:47.176Z,16.90
2019-06-10T06:05:52.474Z,17.00
2019-06-10T06:11:05.409Z,17.20
2019-06-10T06:16:12.731Z,17.40
2019-06-10T06:21:25.392Z,17.80
2019-06-10T06:26:28.565Z,18.30
2019-06-10T06:31:36.074Z,19.60
2019-06-10T06:36:42.102Z,20.40
2019-06-10T06:41:55.387Z,20.90
2019-06-10T06:47:02.676Z,21.10
2019-06-10T06:52:07.132Z,21.00
2019-06-10T06:57:13.025Z,20.90
2019-06-10T07:02:17.178Z,20.70
2019-06-10T07:07:22.232Z,20.50
2019-06-10T07:12:27.697Z,20.50
2019-06-10T07:17:45.115Z,20.50
2019-06-10T07:22:47.178Z,20.80
2019-06-10T07:27:52.691Z,22.20
2019-06-10T07:32:56.540Z,23.90
2019-06-10T07:38:04.984Z,24.50
2019-06-10T07:43:12.874Z,25.20
2019-06-10T07:48:18.383Z,26.90
2019-06-10T07:53:23.126Z,28.30
2019-06-10T07:58:36.468Z,29.80
2019-06-10T08:03:46.067Z,30.00
2019-06-10T08:08:48.327Z,29.80
2019-06-10T08:13:59.690Z,29.80
2019-06-10T08:19:25.929Z,30.00
2019-06-10T08:24:09.580Z,31.10
2019-06-10T08:29:13.961Z,31.90
2019-06-10T08:34:22.187Z,31.30
2019-06-10T08:39:27.449Z,31.00
2019-06-10T08:44:32.727Z,30.80
2019-06-10T08:49:37.559Z,30.50
2019-06-10T08:54:45.660Z,30.10
2019-06-10T08:59:49.247Z,30.30
2019-06-10T09:04:53.909Z,31.20
2019-06-10T09:09:58.249Z,32.00
2019-06-10T09:15:03.717Z,32.10
2019-06-10T09:20:12.888Z,31.50
2019-06-10T09:25:18.243Z,31.00
2019-06-10T09:30:22.799Z,30.30
2019-06-10T09:35:27.437Z,30.10
2019-06-10T09:41:05.843Z,30.50
2019-06-10T09:46:07.678Z,30.90
2019-06-10T09:51:12.485Z,31.60
2019-06-10T09:56:16.658Z,31.90
2019-06-10T10:01:19.983Z,30.40
2019-06-10T10:06:24.728Z,29.80
2019-06-10T10:11:29.330Z,30.30
2019-06-10T10:16:34.051Z,29.90
2019-06-10T10:21:41.226Z,29.70
2019-06-10T10:26:47.161Z,30.30
2019-06-10T10:31:52.342Z,30.60
2019-06-10T10:36:57.389Z,31.00
2019-06-10T10:42:08.898Z,31.80
2019-06-10T10:47:12.408Z,31.50
2019-06-10T10:52:22.425Z,30.70
2019-06-10T10:57:29.174Z,30.60
2019-06-10T11:02:33.385Z,29.90
2019-06-10T11:07:38.109Z,29.50
2019-06-10T11:13:23.699Z,29.60
2019-06-10T11:18:27.856Z,30.00
2019-06-10T11:23:33.728Z,30.30
2019-06-10T11:28:42.841Z,29.70
2019-06-10T11:33:59.047Z,29.30
2019-06-10T11:39:02.796Z,29.30
2019-06-10T11:44:09.739Z,28.50
2019-06-10T11:49:19.259Z,28.40
2019-06-10T11:54:25.470Z,28.90
2019-06-10T11:59:32.593Z,28.90
2019-06-10T12:04:35.820Z,28.50
2019-06-10T12:09:38.899Z,28.00
2019-06-10T12:14:45.155Z,27.60
2019-06-10T12:19:49.793Z,27.50
2019-06-10T12:25:20.125Z,27.40
2019-06-10T12:30:04.287Z,27.40
2019-06-10T12:35:06.110Z,27.40
2019-06-10T12:40:12.570Z,27.20
2019-06-10T12:45:18.653Z,27.00
2019-06-10T12:50:22.955Z,27.00
2019-06-10T12:55:40.150Z,27.10
2019-06-10T13:00:44.291Z,27.20
2019-06-10T13:05:48.414Z,26.90
2019-06-10T13:10:53.286Z,26.80
2019-06-10T13:15:58.213Z,26.70
2019-06-10T13:21:08.573Z,26.60
2019-06-10T13:26:12.440Z,26.50
2019-06-10T13:31:14.140Z,26.50
2019-06-10T13:36:18.383Z,26.40
2019-06-10T13:41:22.838Z,26.30
2019-06-10T13:46:28.219Z,26.20
2019-06-10T13:51:35.404Z,26.10
2019-06-10T13:56:46.962Z,25.90
2019-06-10T14:01:46.281Z,25.80
2019-06-10T14:06:56.838Z,25.70
2019-06-10T14:11:56.558Z,25.50
2019-06-10T14:17:01.256Z,25.40
2019-06-10T14:22:12.203Z,25.50
2019-06-10T14:27:20.510Z,25.50
2019-06-10T14:32:22.796Z,25.50
2019-06-10T14:37:38.159Z,25.50
2019-06-10T14:42:32.639Z,25.60
2019-06-10T14:47:36.855Z,25.70
2019-06-10T14:52:39.902Z,25.90
2019-06-10T14:57:44.107Z,26.10
2019-06-10T15:02:48.483Z,26.00
2019-06-10T15:07:55.016Z,26.00
2019-06-10T15:13:02.205Z,25.70
2019-06-10T15:18:07.620Z,25.40
2019-06-10T15:23:16.470Z,25.20
2019-06-10T15:28:23.293Z,24.90
2019-06-10T15:33:27.196Z,24.60
2019-06-10T15:38:32.801Z,24.50
2019-06-10T15:43:37.100Z,24.20
2019-06-10T15:48:43.002Z,23.50
2019-06-10T15:53:54.339Z,22.50
2019-06-10T15:59:07.114Z,22.10
2019-06-10T16:04:14.005Z,21.80
2019-06-10T16:09:18.379Z,21.70
2019-06-10T16:14:25.154Z,21.70
2019-06-10T16:19:28.820Z,21.70
2019-06-10T16:24:33.779Z,21.60
2019-06-10T16:29:42.426Z,21.50
2019-06-10T16:34:46.741Z,21.50
2019-06-10T16:39:52.526Z,21.50
2019-06-10T16:44:56.655Z,21.60
2019-06-10T16:50:03.255Z,21.60
2019-06-10T16:55:07.597Z,21.60
2019-06-10T17:00:14.749Z,21.50
2019-06-10T17:05:18.859Z,21.50
2019-06-10T17:10:34.421Z,21.40
2019-06-10T17:15:42.379Z,21.30
2019-06-10T17:20:46.891Z,21.10
2019-06-10T17:25:53.407Z,20.70
2019-06-10T17:31:00.372Z,20.30
2019-06-10T17:36:08.220Z,20.00
2019-06-10T17:41:16.192Z,19.90
2019-06-10T17:46:24.100Z,19.80
2019-06-10T17:51:35.527Z,19.80
2019-06-10T17:56:37.684Z,19.80
2019-06-10T18:01:41.774Z,19.90
2019-06-10T18:06:45.979Z,19.90
2019-06-10T18:11:50.392Z,19.90
2019-06-10T18:16:53.517Z,19.80
2019-06-10T18:22:03.051Z,19.70
2019-06-10T18:27:13.801Z,19.60
2019-06-10T18:32:19.901Z,19.50
2019-06-10T18:37:30.501Z,19.30
2019-06-10T18:42:41.552Z,19.20
2019-06-10T18:47:53.080Z,19.10
2019-06-10T18:53:00.803Z,19.00
2019-06-10T18:58:05.452Z,19.00
2019-06-10T19:03:15.764Z,18.90
2019-06-10T19:08:18.006Z,18.80
2019-06-10T19:13:23.891Z,18.80
2019-06-10T19:18:29.939Z,18.70
2019-06-10T19:23:36.656Z,18.60
2019-06-10T19:28:44.774Z,18.60
2019-06-10T19:33:46.985Z,18.50
2019-06-10T19:38:53.829Z,18.40
2019-06-10T19:43:58.296Z,18.30
2019-06-10T19:49:06.836Z,18.20
2019-06-10T19:54:09.266Z,18.10
2019-06-10T19:59:13.427Z,17.90
2019-06-10T20:04:18.274Z,17.70
2019-06-10T20:09:22.794Z,17.50
2019-06-10T20:14:26.848Z,17.30
2019-06-10T20:19:32.622Z,17.20
2019-06-10T20:24:38.350Z,17.10
2019-06-10T20:29:44.534Z,17.00
2019-06-10T20:34:49.688Z,16.90
2019-06-10T20:39:54.442Z,16.90
2019-06-10T20:44:58.623Z,16.80
2019-06-10T20:50:06.427Z,16.80
2019-06-10T20:55:12.735Z,16.80
2019-06-10T21:00:33.853Z,16.90
2019-06-10T21:05:39.438Z,17.00
2019-06-10T21:10:46.136Z,17.00
2019-06-10T21:15:51.460Z,16.90
2019-06-10T21:20:56.253Z,16.70
2019-06-10T21:26:02.900Z,16.50
2019-06-10T21:31:07.811Z,16.30
2019-06-10T21:36:12.417Z,16.20
2019-06-10T21:41:16.638Z,16.10
2019-06-10T21:46:22.619Z,16.00
2019-06-10T21:51:26.719Z,16.00
2019-06-10T21:56:34.569Z,16.00
2019-06-10T22:01:43.352Z,16.00
2019-06-10T22:06:49.388Z,16.10
2019-06-10T22:11:55.866Z,16.00
2019-06-10T22:17:00.176Z,15.90
2019-06-10T22:22:04.356Z,15.90
2019-06-10T22:27:08.371Z,15.90
2019-06-10T22:32:13.039Z,15.90
2019-06-10T22:37:17.699Z,15.90
2019-06-10T22:42:22.327Z,15.90
2019-06-10T22:47:28.456Z,15.90
2019-06-10T22:52:34.997Z,15.80
2019-06-10T22:57:38.882Z,15.80
2019-06-10T23:02:43.869Z,15.80
2019-06-10T23:07:48.368Z,15.90
2019-06-10T23:12:54.956Z,15.90
2019-06-10T23:18:03.292Z,15.90
2019-06-10T23:23:08.371Z,15.80
2019-06-10T23:28:13.914Z,15.80
2019-06-10T23:38:44.168Z,15.70
2019-06-10T23:43:48.289Z,15.70
2019-06-10T23:48:55.434Z,15.70
2019-06-10T23:54:02.150Z,15.60
2019-06-10T23:59:05.468Z,15.60
